createdAt,value
2022-12-03T00:00:54.968Z,34.10
2022-12-03T00:01:56.690Z,39.20
2022-12-03T00:02:58.477Z,54.20
2022-12-03T00:04:00.355Z,89.68
2022-12-03T00:05:02.138Z,84.38
2022-12-03T00:06:03.853Z,64.55
2022-12-03T00:07:05.546Z,39.95
2022-12-03T00:08:07.220Z,40.95
2022-12-03T00:09:08.907Z,38.72
2022-12-03T00:10:11.713Z,36.50
2022-12-03T00:11:13.385Z,37.92
2022-12-03T00:12:15.083Z,34.90
2022-12-03T00:13:16.800Z,34.92
2022-12-03T00:14:18.485Z,34.78
2022-12-03T00:15:20.198Z,32.03
2022-12-03T00:16:21.978Z,37.78
2022-12-03T00:17:23.734Z,31.83
2022-12-03T00:18:25.452Z,37.28
2022-12-03T00:19:27.110Z,31.35
2022-12-03T00:20:28.790Z,31.70
2022-12-03T00:21:30.461Z,34.88
2022-12-03T00:22:32.116Z,32.47
2022-12-03T00:23:37.201Z,31.45
2022-12-03T00:24:43.341Z,28.30
2022-12-03T00:25:45.062Z,33.92
2022-12-03T00:26:46.742Z,35.47
2022-12-03T00:27:48.402Z,43.35
2022-12-03T00:28:50.208Z,36.00
2022-12-03T00:29:51.869Z,45.03
2022-12-03T00:30:54.280Z,37.35
2022-12-03T00:31:56.033Z,35.83
2022-12-03T00:32:57.683Z,36.13
2022-12-03T00:33:59.410Z,35.47
2022-12-03T00:35:01.056Z,34.88
2022-12-03T00:36:02.741Z,45.70
2022-12-03T00:37:04.407Z,54.25
2022-12-03T00:38:06.109Z,39.70
2022-12-03T00:39:07.769Z,36.90
2022-12-03T00:40:11.177Z,35.38
2022-12-03T00:41:13.232Z,34.63
2022-12-03T00:42:14.920Z,34.35
2022-12-03T00:43:16.593Z,45.83
2022-12-03T00:44:18.307Z,31.50
2022-12-03T00:45:20.043Z,24.95
2022-12-03T00:46:21.973Z,26.90
2022-12-03T00:47:23.754Z,29.48
2022-12-03T00:48:25.436Z,26.38
2022-12-03T00:49:27.113Z,30.20
2022-12-03T00:50:28.894Z,32.47
2022-12-03T00:51:30.682Z,35.00
2022-12-03T00:52:32.532Z,29.13
2022-12-03T00:53:34.261Z,29.40
2022-12-03T00:54:35.916Z,27.73
2022-12-03T00:55:37.635Z,31.20
2022-12-03T00:56:39.275Z,30.48
2022-12-03T00:57:40.939Z,40.95
2022-12-03T00:58:42.612Z,34.35
2022-12-03T00:59:44.279Z,29.77
2022-12-03T01:00:45.957Z,29.23
2022-12-03T01:01:47.768Z,33.15
2022-12-03T01:02:49.445Z,35.97
2022-12-03T01:03:51.110Z,30.95
2022-12-03T01:04:53.044Z,33.63
2022-12-03T01:05:55.017Z,31.15
2022-12-03T01:06:56.742Z,29.92
2022-12-03T01:07:58.491Z,34.20
2022-12-03T01:09:00.307Z,30.98
2022-12-03T01:10:03.701Z,38.65
2022-12-03T01:11:25.430Z,37.28
2022-12-03T01:12:27.101Z,34.80
2022-12-03T01:13:28.794Z,31.52
2022-12-03T01:14:30.664Z,29.63
2022-12-03T01:15:32.410Z,35.15
2022-12-03T01:16:34.626Z,33.28
2022-12-03T01:17:36.601Z,31.30
2022-12-03T01:18:38.248Z,31.38
2022-12-03T01:19:46.545Z,27.42
2022-12-03T01:20:49.821Z,33.10
2022-12-03T01:21:52.054Z,28.98
2022-12-03T01:22:53.921Z,23.77
2022-12-03T01:23:55.742Z,27.13
2022-12-03T01:24:57.461Z,31.45
2022-12-03T01:25:59.090Z,26.85
2022-12-03T01:27:01.103Z,27.80
2022-12-03T01:28:02.797Z,28.05
2022-12-03T01:29:05.095Z,33.05
2022-12-03T01:30:09.557Z,32.05
2022-12-03T01:31:29.806Z,28.60
2022-12-03T01:32:31.532Z,29.67
2022-12-03T01:33:33.183Z,30.90
2022-12-03T01:34:34.930Z,33.45
2022-12-03T01:35:36.581Z,30.05
2022-12-03T01:36:38.234Z,39.33
2022-12-03T01:37:39.923Z,40.05
2022-12-03T01:38:41.568Z,40.38
2022-12-03T01:39:43.334Z,37.25
2022-12-03T01:40:45.035Z,37.08
2022-12-03T01:41:48.903Z,35.88
2022-12-03T01:42:50.612Z,34.85
2022-12-03T01:43:53.468Z,41.13
2022-12-03T01:44:57.710Z,43.95
2022-12-03T01:45:59.435Z,47.22
2022-12-03T01:47:04.554Z,39.75
2022-12-03T01:48:06.515Z,41.75
2022-12-03T01:49:15.306Z,50.63
2022-12-03T01:50:33.383Z,40.83
2022-12-03T01:51:35.055Z,66.78
2022-12-03T01:52:39.366Z,65.20
2022-12-03T01:53:41.751Z,55.83
2022-12-03T01:55:04.830Z,42.78
2022-12-03T01:56:07.096Z,43.55
2022-12-03T01:57:22.080Z,46.28
2022-12-03T01:58:28.556Z,47.95
2022-12-03T01:59:37.460Z,48.50
2022-12-03T02:00:39.181Z,41.92
2022-12-03T02:01:40.886Z,44.53
2022-12-03T02:02:42.779Z,43.10
2022-12-03T02:03:46.186Z,50.85
2022-12-03T02:04:48.361Z,52.42
2022-12-03T02:05:50.515Z,46.20
2022-12-03T02:06:52.513Z,43.60
2022-12-03T02:07:55.231Z,43.28
2022-12-03T02:08:59.785Z,45.75
2022-12-03T02:10:03.825Z,50.72
2022-12-03T02:11:30.034Z,55.63
2022-12-03T02:12:50.420Z,70.13
2022-12-03T02:13:55.335Z,61.97
2022-12-03T02:14:57.153Z,64.90
2022-12-03T02:15:59.084Z,69.80
2022-12-03T02:17:00.943Z,62.92
2022-12-03T02:18:03.131Z,50.95
2022-12-03T02:19:13.229Z,48.38
2022-12-03T02:20:15.275Z,51.63
2022-12-03T02:21:38.520Z,48.72
2022-12-03T02:23:10.655Z,42.25
2022-12-03T02:24:21.533Z,39.47
2022-12-03T02:25:29.346Z,36.33
2022-12-03T02:26:31.055Z,32.85
2022-12-03T02:27:32.815Z,39.45
2022-12-03T02:28:34.607Z,35.97
2022-12-03T02:29:39.991Z,33.78
2022-12-03T02:30:41.847Z,33.28
2022-12-03T02:31:44.171Z,37.38
2022-12-03T02:32:47.141Z,36.58
2022-12-03T02:33:48.978Z,37.53
2022-12-03T02:34:51.932Z,34.75
2022-12-03T02:35:55.286Z,34.88
2022-12-03T02:36:58.609Z,31.65
2022-12-03T02:38:08.331Z,34.65
2022-12-03T02:39:10.051Z,32.05
2022-12-03T02:40:17.063Z,31.25
2022-12-03T02:41:39.422Z,32.92
2022-12-03T02:42:42.321Z,35.35
2022-12-03T02:43:44.013Z,43.70
2022-12-03T02:44:45.682Z,32.10
2022-12-03T02:45:50.718Z,28.83
2022-12-03T02:46:52.444Z,26.75
2022-12-03T02:48:06.832Z,27.73
2022-12-03T02:49:08.575Z,26.52
2022-12-03T02:50:13.041Z,29.33
2022-12-03T02:51:14.761Z,31.42
2022-12-03T02:52:16.567Z,34.45
2022-12-03T02:53:23.320Z,35.30
2022-12-03T02:54:25.024Z,34.85
2022-12-03T02:55:31.976Z,27.27
2022-12-03T02:56:38.137Z,27.45
2022-12-03T02:57:40.657Z,25.83
2022-12-03T02:58:45.168Z,25.25
2022-12-03T02:59:46.972Z,30.17
2022-12-03T03:00:50.101Z,34.45
2022-12-03T03:01:51.973Z,34.53
2022-12-03T03:02:53.813Z,31.95
2022-12-03T03:03:56.593Z,27.63
2022-12-03T03:04:58.355Z,27.20
2022-12-03T03:06:02.749Z,33.15
2022-12-03T03:07:04.675Z,25.67
2022-12-03T03:08:09.118Z,31.42
2022-12-03T03:09:10.889Z,28.92
2022-12-03T03:10:15.315Z,25.48
2022-12-03T03:11:17.109Z,30.75
2022-12-03T03:12:18.878Z,30.60
2022-12-03T03:13:21.275Z,26.83
2022-12-03T03:14:22.937Z,34.85
2022-12-03T03:15:25.562Z,26.58
2022-12-03T03:16:27.452Z,27.98
2022-12-03T03:17:29.182Z,38.42
2022-12-03T03:18:31.483Z,25.65
2022-12-03T03:19:33.343Z,32.65
2022-12-03T03:20:36.004Z,25.33
2022-12-03T03:21:37.943Z,29.05
2022-12-03T03:22:42.009Z,29.80
2022-12-03T03:23:43.695Z,27.13
2022-12-03T03:24:45.745Z,34.88
2022-12-03T03:25:51.889Z,25.85
2022-12-03T03:26:53.728Z,27.08
2022-12-03T03:27:55.412Z,30.95
2022-12-03T03:29:00.301Z,30.98
2022-12-03T03:30:02.072Z,24.40
2022-12-03T03:31:05.512Z,30.20
2022-12-03T03:32:07.289Z,34.42
2022-12-03T03:33:09.988Z,37.67
2022-12-03T03:34:12.152Z,30.83
2022-12-03T03:35:14.830Z,34.88
2022-12-03T03:36:17.097Z,37.03
2022-12-03T03:37:19.045Z,42.78
2022-12-03T03:38:22.697Z,40.00
2022-12-03T03:39:24.803Z,38.78
2022-12-03T03:40:27.315Z,38.10
2022-12-03T03:41:30.100Z,40.05
2022-12-03T03:42:31.859Z,38.47
2022-12-03T03:43:35.792Z,42.92
2022-12-03T03:44:37.801Z,37.50
2022-12-03T03:46:42.793Z,41.83
2022-12-03T03:47:45.149Z,39.33
2022-12-03T03:48:48.663Z,42.45
2022-12-03T03:49:50.981Z,37.95
2022-12-03T03:50:53.308Z,44.83
2022-12-03T03:51:55.661Z,41.30
2022-12-03T03:52:58.692Z,46.33
2022-12-03T03:54:01.626Z,49.00
2022-12-03T03:55:04.475Z,53.38
2022-12-03T03:56:07.268Z,42.15
2022-12-03T03:57:08.977Z,43.88
2022-12-03T03:58:11.239Z,48.90
2022-12-03T03:59:14.184Z,46.88
2022-12-03T04:00:16.123Z,41.67
2022-12-03T04:01:18.523Z,49.35
2022-12-03T04:02:23.028Z,39.70
2022-12-03T04:03:24.722Z,53.25
2022-12-03T04:04:27.505Z,50.17
2022-12-03T04:05:29.316Z,52.05
2022-12-03T04:06:30.946Z,69.60
2022-12-03T04:07:32.631Z,73.22
2022-12-03T04:08:34.360Z,96.78
2022-12-03T04:09:36.018Z,109.28
2022-12-03T04:10:56.557Z,94.15
2022-12-03T04:12:16.797Z,86.53
2022-12-03T04:13:18.437Z,83.05
2022-12-03T04:14:20.148Z,69.35
2022-12-03T04:15:22.031Z,84.75
2022-12-03T04:16:23.783Z,62.45
2022-12-03T04:17:25.593Z,93.25
2022-12-03T04:18:45.558Z,61.33
2022-12-03T04:19:47.211Z,67.85
2022-12-03T04:20:48.861Z,71.20
2022-12-03T04:22:09.455Z,77.88
2022-12-03T04:23:11.192Z,71.35
2022-12-03T04:24:13.166Z,83.07
2022-12-03T04:25:33.381Z,57.10
2022-12-03T04:26:54.214Z,88.18
2022-12-03T04:28:14.721Z,87.43
2022-12-03T04:29:16.434Z,114.43
2022-12-03T04:30:18.161Z,69.32
2022-12-03T04:31:38.794Z,74.60
2022-12-03T04:32:58.824Z,91.88
2022-12-03T04:34:19.274Z,71.95
2022-12-03T04:35:39.387Z,103.38
2022-12-03T04:36:41.120Z,70.88
2022-12-03T04:37:42.827Z,76.07
2022-12-03T04:38:44.480Z,97.20
2022-12-03T04:39:46.186Z,101.50
2022-12-03T04:41:04.402Z,75.88
2022-12-03T04:42:06.663Z,67.78
2022-12-03T04:43:08.325Z,80.00
2022-12-03T04:44:28.494Z,64.53
2022-12-03T04:45:30.232Z,80.85
2022-12-03T04:46:32.083Z,77.95
2022-12-03T04:47:38.458Z,83.60
2022-12-03T04:48:41.595Z,73.20
2022-12-03T04:49:48.197Z,140.90
2022-12-03T04:50:49.927Z,103.97
2022-12-03T04:51:51.671Z,114.50
2022-12-03T04:52:53.337Z,96.80
2022-12-03T04:53:55.000Z,79.70
2022-12-03T04:54:56.937Z,69.47
2022-12-03T04:55:58.668Z,70.88
2022-12-03T04:57:00.547Z,64.43
2022-12-03T04:58:02.213Z,97.50
2022-12-03T04:59:03.895Z,83.78
2022-12-03T05:00:06.171Z,75.88
2022-12-03T05:01:07.897Z,73.78
2022-12-03T05:02:09.977Z,58.03
2022-12-03T05:03:11.766Z,63.33
2022-12-03T05:04:14.795Z,79.20
2022-12-03T05:05:17.260Z,82.93
2022-12-03T05:06:18.920Z,97.47
2022-12-03T05:07:20.564Z,99.07
2022-12-03T05:08:22.207Z,96.82
2022-12-03T05:09:23.848Z,96.93
2022-12-03T05:10:25.743Z,345.80
2022-12-03T05:11:27.529Z,481.27
2022-12-03T05:12:29.185Z,234.15
2022-12-03T05:13:30.847Z,172.07
2022-12-03T05:14:32.569Z,142.90
2022-12-03T05:15:34.218Z,154.27
2022-12-03T05:16:36.453Z,156.05
2022-12-03T05:17:38.137Z,169.73
2022-12-03T05:18:39.821Z,225.88
2022-12-03T05:20:00.184Z,191.02
2022-12-03T05:21:01.859Z,166.65
2022-12-03T05:22:03.527Z,171.15
2022-12-03T05:23:05.199Z,181.70
2022-12-03T05:24:07.116Z,209.30
2022-12-03T05:25:09.089Z,168.80
2022-12-03T05:26:11.316Z,233.82
2022-12-03T05:27:12.956Z,160.75
2022-12-03T05:28:14.809Z,198.45
2022-12-03T05:29:16.525Z,253.35
2022-12-03T05:30:18.209Z,244.40
2022-12-03T05:31:19.937Z,191.13
2022-12-03T05:32:22.180Z,217.80
2022-12-03T05:33:23.832Z,215.90
2022-12-03T05:34:25.501Z,315.77
2022-12-03T05:35:27.951Z,393.13
2022-12-03T05:36:29.574Z,363.42
2022-12-03T05:37:31.249Z,376.15
2022-12-03T05:38:32.960Z,373.23
2022-12-03T05:39:34.726Z,297.52
2022-12-03T05:40:36.431Z,298.92
2022-12-03T05:41:56.696Z,392.45
2022-12-03T05:42:58.529Z,199.70
2022-12-03T05:44:00.188Z,420.52
2022-12-03T05:45:01.879Z,427.63
2022-12-03T05:46:03.572Z,299.77
2022-12-03T05:47:05.312Z,348.98
2022-12-03T05:48:10.291Z,184.48
2022-12-03T05:49:11.936Z,284.52
2022-12-03T05:50:13.893Z,397.70
2022-12-03T05:51:15.591Z,333.00
2022-12-03T05:52:17.234Z,252.07
2022-12-03T05:53:18.899Z,250.90
2022-12-03T05:54:20.602Z,292.77
2022-12-03T05:55:23.061Z,217.60
2022-12-03T05:56:24.782Z,277.45
2022-12-03T05:57:26.422Z,306.45
2022-12-03T05:58:28.078Z,247.18
2022-12-03T05:59:29.735Z,356.75
2022-12-03T06:00:37.672Z,446.27
2022-12-03T06:01:42.308Z,334.58
2022-12-03T06:02:44.533Z,295.88
2022-12-03T06:03:46.429Z,265.83
2022-12-03T06:04:48.313Z,233.48
2022-12-03T06:05:49.964Z,227.77
2022-12-03T06:06:51.626Z,361.23
2022-12-03T06:07:53.619Z,307.33
2022-12-03T06:08:55.348Z,280.52
2022-12-03T06:09:57.001Z,276.60
2022-12-03T06:10:58.626Z,228.80
2022-12-03T06:12:00.980Z,145.30
2022-12-03T06:13:03.425Z,181.27
2022-12-03T06:14:05.077Z,170.88
2022-12-03T06:15:07.545Z,256.77
2022-12-03T06:16:09.282Z,346.38
2022-12-03T06:17:10.995Z,144.35
2022-12-03T06:18:12.691Z,182.45
2022-12-03T06:19:14.337Z,144.80
2022-12-03T06:20:18.757Z,211.70
2022-12-03T06:21:20.437Z,157.73
2022-12-03T06:22:22.105Z,134.63
2022-12-03T06:23:23.752Z,147.02
2022-12-03T06:24:25.392Z,182.23
2022-12-03T06:25:27.076Z,139.40
2022-12-03T06:26:30.215Z,251.57
2022-12-03T06:27:31.868Z,151.85
2022-12-03T06:28:33.532Z,144.10
2022-12-03T06:29:35.219Z,110.18
2022-12-03T06:30:36.951Z,134.15
2022-12-03T06:31:38.637Z,87.82
2022-12-03T06:32:40.751Z,118.25
2022-12-03T06:33:42.529Z,107.25
2022-12-03T06:34:44.220Z,87.57
2022-12-03T06:35:45.868Z,82.43
2022-12-03T06:36:47.753Z,98.05
2022-12-03T06:37:49.482Z,96.80
2022-12-03T06:38:51.189Z,83.93
2022-12-03T06:39:52.938Z,100.40
2022-12-03T06:41:09.718Z,91.45
2022-12-03T06:42:11.414Z,91.13
2022-12-03T06:43:13.070Z,91.00
2022-12-03T06:44:15.064Z,90.60
2022-12-03T06:45:16.801Z,82.43
2022-12-03T06:46:18.613Z,106.45
2022-12-03T06:47:20.500Z,90.13
2022-12-03T06:48:22.248Z,86.03
2022-12-03T06:49:23.961Z,87.20
2022-12-03T06:50:25.643Z,89.55
2022-12-03T06:51:27.313Z,109.72
2022-12-03T06:52:28.990Z,106.60
2022-12-03T06:53:30.680Z,99.63
2022-12-03T06:54:32.375Z,113.80
2022-12-03T06:55:34.009Z,121.63
2022-12-03T06:56:40.379Z,131.10
2022-12-03T06:57:46.430Z,140.63
2022-12-03T06:58:48.091Z,142.95
2022-12-03T06:59:49.785Z,142.50
2022-12-03T07:00:51.423Z,115.97
2022-12-03T07:01:53.121Z,127.53
2022-12-03T07:02:54.847Z,134.85
2022-12-03T07:03:56.535Z,137.85
2022-12-03T07:04:58.437Z,133.68
2022-12-03T07:06:00.427Z,123.38
2022-12-03T07:07:02.129Z,130.68
2022-12-03T07:08:04.030Z,133.45
2022-12-03T07:09:05.825Z,124.28
2022-12-03T07:10:08.006Z,137.85
2022-12-03T07:11:29.976Z,143.43
2022-12-03T07:12:32.904Z,149.13
2022-12-03T07:13:34.549Z,125.53
2022-12-03T07:14:36.200Z,155.18
2022-12-03T07:15:37.843Z,161.68
2022-12-03T07:16:40.053Z,139.63
2022-12-03T07:17:41.809Z,151.15
2022-12-03T07:18:43.456Z,148.20
2022-12-03T07:19:45.137Z,141.20
2022-12-03T07:20:46.792Z,140.00
2022-12-03T07:21:48.726Z,137.80
2022-12-03T07:22:50.383Z,137.15
2022-12-03T07:23:52.017Z,138.00
2022-12-03T07:24:53.905Z,155.50
2022-12-03T07:25:55.704Z,157.50
2022-12-03T07:26:57.394Z,143.30
2022-12-03T07:27:59.065Z,135.68
2022-12-03T07:29:00.785Z,142.98
2022-12-03T07:30:02.427Z,148.95
2022-12-03T07:31:04.133Z,164.55
2022-12-03T07:32:06.099Z,153.23
2022-12-03T07:33:07.737Z,140.00
2022-12-03T07:34:09.436Z,150.82
2022-12-03T07:35:11.122Z,130.57
2022-12-03T07:36:12.864Z,142.65
2022-12-03T07:37:18.656Z,141.23
2022-12-03T07:38:23.286Z,122.95
2022-12-03T07:39:24.948Z,122.65
2022-12-03T07:40:26.581Z,137.80
2022-12-03T07:41:28.212Z,121.10
2022-12-03T07:42:29.943Z,124.13
2022-12-03T07:43:31.709Z,139.75
2022-12-03T07:44:33.512Z,133.20
2022-12-03T07:45:35.206Z,130.43
2022-12-03T07:46:36.939Z,135.25
2022-12-03T07:47:38.591Z,127.63
2022-12-03T07:48:40.512Z,123.18
2022-12-03T07:49:42.157Z,112.20
2022-12-03T07:50:43.877Z,112.22
2022-12-03T07:51:54.288Z,99.57
2022-12-03T07:52:56.192Z,113.33
2022-12-03T07:53:57.849Z,106.88
2022-12-03T07:54:59.508Z,97.93
2022-12-03T07:56:01.138Z,104.93
2022-12-03T07:57:02.919Z,105.43
2022-12-03T07:58:04.722Z,106.90
2022-12-03T07:59:06.404Z,118.45
2022-12-03T08:00:08.441Z,113.68
2022-12-03T08:01:10.584Z,115.35
2022-12-03T08:02:15.625Z,110.13
2022-12-03T08:03:21.293Z,117.22
2022-12-03T08:04:22.963Z,129.82
2022-12-03T08:05:24.643Z,132.68
2022-12-03T08:06:26.280Z,136.05
2022-12-03T08:07:28.000Z,125.70
2022-12-03T08:08:29.663Z,130.23
2022-12-03T08:09:31.652Z,130.65
2022-12-03T08:10:33.308Z,113.20
2022-12-03T08:11:35.018Z,110.20
2022-12-03T08:12:41.885Z,103.28
2022-12-03T08:13:43.657Z,112.07
2022-12-03T08:14:45.398Z,110.13
2022-12-03T08:15:47.223Z,119.18
2022-12-03T08:16:48.979Z,119.43
2022-12-03T08:17:56.872Z,121.90
2022-12-03T08:18:58.559Z,126.68
2022-12-03T08:20:00.212Z,116.32
2022-12-03T08:21:01.901Z,126.80
2022-12-03T08:22:11.519Z,129.32
2022-12-03T08:23:16.039Z,127.53
2022-12-03T08:24:18.938Z,127.68
2022-12-03T08:25:32.739Z,129.45
2022-12-03T08:26:34.517Z,124.90
2022-12-03T08:27:36.172Z,124.70
2022-12-03T08:28:37.835Z,124.03
2022-12-03T08:29:39.529Z,108.00
2022-12-03T08:30:42.955Z,120.53
2022-12-03T08:31:54.948Z,119.07
2022-12-03T08:32:59.226Z,129.48
2022-12-03T08:34:15.745Z,124.28
2022-12-03T08:35:27.534Z,128.15
2022-12-03T08:36:33.677Z,123.47
2022-12-03T08:37:36.281Z,116.50
2022-12-03T08:38:37.976Z,114.32
2022-12-03T08:39:45.481Z,117.50
2022-12-03T08:40:49.421Z,102.93
2022-12-03T08:42:15.169Z,115.57
2022-12-03T08:43:16.798Z,116.35
2022-12-03T08:44:28.225Z,108.68
2022-12-03T08:45:30.425Z,100.05
2022-12-03T08:46:32.145Z,112.82
2022-12-03T08:47:33.822Z,104.80
2022-12-03T08:48:40.689Z,105.45
2022-12-03T08:49:51.671Z,108.00
2022-12-03T08:50:58.787Z,104.28
2022-12-03T08:52:01.997Z,115.60
2022-12-03T08:53:15.645Z,119.25
2022-12-03T08:54:20.223Z,109.47
2022-12-03T08:55:39.270Z,107.63
2022-12-03T08:56:41.597Z,104.57
2022-12-03T08:57:43.929Z,105.57
2022-12-03T08:58:48.247Z,110.72
2022-12-03T08:59:54.383Z,106.45
2022-12-03T09:01:07.235Z,114.60
2022-12-03T09:02:23.010Z,101.78
2022-12-03T09:03:24.981Z,104.28
2022-12-03T09:04:45.804Z,92.68
2022-12-03T09:05:47.488Z,106.35
2022-12-03T09:06:49.269Z,109.03
2022-12-03T09:07:51.034Z,94.72
2022-12-03T09:08:52.820Z,95.30
2022-12-03T09:09:54.885Z,100.47
2022-12-03T09:10:56.941Z,78.95
2022-12-03T09:11:58.721Z,88.13
2022-12-03T09:13:00.365Z,83.70
2022-12-03T09:14:02.089Z,95.53
2022-12-03T09:15:04.540Z,92.40
2022-12-03T09:16:06.640Z,98.93
2022-12-03T09:17:08.523Z,94.68
2022-12-03T09:18:10.250Z,98.47
2022-12-03T09:19:11.956Z,102.18
2022-12-03T09:20:13.633Z,82.63
2022-12-03T09:21:15.332Z,96.47
2022-12-03T09:22:17.490Z,96.40
2022-12-03T09:23:19.155Z,92.15
2022-12-03T09:24:21.492Z,98.03
2022-12-03T09:25:23.141Z,90.25
2022-12-03T09:26:24.846Z,86.05
2022-12-03T09:27:26.607Z,89.88
2022-12-03T09:28:28.304Z,95.40
2022-12-03T09:29:29.967Z,100.30
2022-12-03T09:30:31.728Z,96.63
2022-12-03T09:31:34.461Z,96.95
2022-12-03T09:32:36.251Z,99.75
2022-12-03T09:33:37.935Z,85.53
2022-12-03T09:34:39.782Z,87.03
2022-12-03T09:35:41.423Z,92.47
2022-12-03T09:36:43.083Z,71.43
2022-12-03T09:37:44.747Z,71.00
2022-12-03T09:38:48.261Z,72.25
2022-12-03T09:39:50.179Z,72.38
2022-12-03T09:40:52.590Z,79.88
2022-12-03T09:41:55.576Z,78.28
2022-12-03T09:43:01.008Z,85.53
2022-12-03T09:44:04.364Z,83.65
2022-12-03T09:45:13.155Z,78.03
2022-12-03T09:46:15.035Z,82.90
2022-12-03T09:47:17.011Z,76.22
2022-12-03T09:48:20.153Z,79.00
2022-12-03T09:49:22.030Z,69.60
2022-12-03T09:50:26.532Z,67.97
2022-12-03T09:51:33.566Z,73.65
2022-12-03T09:52:35.320Z,68.68
2022-12-03T09:53:41.328Z,74.03
2022-12-03T09:54:47.329Z,78.60
2022-12-03T09:55:50.059Z,71.32
2022-12-03T09:56:53.665Z,65.60
2022-12-03T09:57:56.904Z,62.42
2022-12-03T09:58:59.193Z,62.45
2022-12-03T10:00:01.124Z,65.43
2022-12-03T10:01:02.829Z,55.67
2022-12-03T10:02:21.360Z,72.47
2022-12-03T10:03:30.130Z,65.43
2022-12-03T10:04:32.041Z,62.58
2022-12-03T10:05:34.952Z,74.82
2022-12-03T10:06:40.980Z,67.32
2022-12-03T10:07:46.289Z,61.00
2022-12-03T10:08:51.037Z,54.13
2022-12-03T10:09:53.288Z,58.97
2022-12-03T10:10:56.780Z,56.20
2022-12-03T10:11:59.857Z,51.20
2022-12-03T10:13:02.325Z,55.88
2022-12-03T10:14:04.969Z,53.58
2022-12-03T10:15:10.055Z,60.22
2022-12-03T10:16:15.532Z,51.97
2022-12-03T10:17:17.585Z,45.42
2022-12-03T10:18:23.305Z,45.03
2022-12-03T10:19:29.262Z,38.30
2022-12-03T10:20:30.912Z,37.45
2022-12-03T10:21:37.058Z,39.03
2022-12-03T10:22:38.728Z,42.17
2022-12-03T10:23:40.983Z,42.00
2022-12-03T10:24:44.976Z,40.05
2022-12-03T10:25:55.521Z,34.00
2022-12-03T10:27:00.002Z,33.88
2022-12-03T10:28:06.658Z,34.30
2022-12-03T10:29:19.881Z,36.15
2022-12-03T10:30:23.469Z,35.33
2022-12-03T10:31:35.526Z,33.08
2022-12-03T10:32:43.265Z,32.50
2022-12-03T10:33:47.362Z,37.03
2022-12-03T10:34:49.030Z,37.25
2022-12-03T10:35:50.677Z,37.58
2022-12-03T10:37:22.610Z,36.80
2022-12-03T10:38:24.545Z,32.88
2022-12-03T10:39:26.213Z,39.83
2022-12-03T10:40:32.308Z,33.80
2022-12-03T10:41:34.073Z,34.63
2022-12-03T10:42:38.516Z,37.08
2022-12-03T10:43:40.166Z,32.08
2022-12-03T10:44:41.802Z,34.10
2022-12-03T10:45:48.402Z,33.85
2022-12-03T10:47:11.686Z,37.95
2022-12-03T10:48:30.707Z,34.95
2022-12-03T10:49:32.442Z,30.92
2022-12-03T10:50:35.518Z,33.45
2022-12-03T10:51:39.326Z,34.20
2022-12-03T10:52:41.119Z,29.63
2022-12-03T10:53:43.097Z,29.95
2022-12-03T10:54:44.781Z,27.40
2022-12-03T10:55:48.479Z,36.42
2022-12-03T10:56:52.575Z,33.88
2022-12-03T10:57:54.223Z,30.48
2022-12-03T10:58:56.097Z,32.83
2022-12-03T10:59:58.321Z,32.45
2022-12-03T11:01:03.594Z,30.20
2022-12-03T11:02:18.015Z,29.67
2022-12-03T11:03:25.311Z,29.15
2022-12-03T11:04:34.326Z,27.88
2022-12-03T11:05:35.966Z,33.15
2022-12-03T11:06:37.673Z,30.38
2022-12-03T11:07:39.731Z,28.25
2022-12-03T11:08:44.974Z,26.95
2022-12-03T11:09:51.213Z,25.70
2022-12-03T11:11:16.485Z,25.45
2022-12-03T11:12:19.994Z,24.55
2022-12-03T11:13:33.528Z,27.25
2022-12-03T11:14:54.544Z,29.52
2022-12-03T11:15:57.194Z,25.60
2022-12-03T11:16:58.889Z,30.35
2022-12-03T11:18:00.806Z,28.00
2022-12-03T11:19:03.340Z,30.85
2022-12-03T11:20:09.156Z,26.80
2022-12-03T11:21:12.922Z,27.52
2022-12-03T11:22:14.519Z,31.05
2022-12-03T11:23:44.841Z,34.03
2022-12-03T11:24:47.632Z,33.35
2022-12-03T11:25:50.732Z,31.88
2022-12-03T11:26:52.448Z,32.80
2022-12-03T11:28:12.703Z,34.05
2022-12-03T11:29:14.846Z,39.75
2022-12-03T11:30:51.701Z,40.53
2022-12-03T11:31:53.447Z,37.78
2022-12-03T11:32:55.041Z,38.10
2022-12-03T11:34:18.506Z,37.30
2022-12-03T11:35:35.956Z,36.38
2022-12-03T11:37:12.464Z,46.80
2022-12-03T11:38:53.496Z,48.03
2022-12-03T11:39:55.844Z,39.35
2022-12-03T11:41:14.929Z,45.03
2022-12-03T11:42:28.644Z,34.47
2022-12-03T11:43:52.161Z,37.85
2022-12-03T11:45:05.830Z,36.40
2022-12-03T11:46:10.319Z,37.80
2022-12-03T11:47:16.489Z,42.45
2022-12-03T11:48:18.892Z,37.95
2022-12-03T11:49:45.232Z,36.08
2022-12-03T11:50:52.775Z,42.17
2022-12-03T11:51:54.687Z,39.42
2022-12-03T11:53:18.926Z,41.03
2022-12-03T11:54:23.375Z,33.30
2022-12-03T11:55:35.823Z,39.55
2022-12-03T11:56:45.034Z,39.17
2022-12-03T11:57:46.730Z,43.80
2022-12-03T11:58:48.663Z,42.72
2022-12-03T12:00:24.828Z,49.00
2022-12-03T12:01:39.242Z,50.20
2022-12-03T12:02:41.209Z,57.30
2022-12-03T12:03:50.372Z,48.30
2022-12-03T12:04:52.109Z,46.60
2022-12-03T12:06:14.392Z,49.40
2022-12-03T12:07:39.650Z,47.17
2022-12-03T12:08:56.579Z,36.28
2022-12-03T12:09:58.545Z,44.45
2022-12-03T12:11:01.229Z,37.97
2022-12-03T12:12:19.781Z,34.53
2022-12-03T12:13:33.386Z,37.55
2022-12-03T12:14:35.094Z,35.42
2022-12-03T12:15:39.606Z,35.13
2022-12-03T12:16:46.087Z,28.42
2022-12-03T12:17:47.914Z,35.03
2022-12-03T12:18:55.083Z,35.17
2022-12-03T12:20:27.033Z,30.17
2022-12-03T12:21:47.901Z,36.10
2022-12-03T12:22:50.273Z,36.50
2022-12-03T12:23:52.213Z,46.45
2022-12-03T12:24:58.448Z,40.20
2022-12-03T12:26:07.281Z,43.30
2022-12-03T12:27:11.930Z,52.13
2022-12-03T12:28:13.704Z,48.78
2022-12-03T12:29:15.340Z,47.63
2022-12-03T12:30:19.905Z,44.42
2022-12-03T12:31:21.717Z,45.50
2022-12-03T12:32:35.383Z,44.83
2022-12-03T12:33:37.073Z,40.15
2022-12-03T12:34:40.841Z,49.47
2022-12-03T12:35:42.581Z,49.78
2022-12-03T12:36:47.192Z,43.00
2022-12-03T12:38:00.084Z,46.35
2022-12-03T12:39:07.483Z,50.80
2022-12-03T12:40:15.883Z,42.92
2022-12-03T12:41:17.608Z,45.15
2022-12-03T12:42:33.195Z,49.08
2022-12-03T12:43:36.082Z,38.88
2022-12-03T12:44:37.736Z,40.22
2022-12-03T12:45:42.118Z,39.20
2022-12-03T12:46:47.987Z,32.00
2022-12-03T12:48:17.840Z,29.88
2022-12-03T12:49:23.582Z,30.98
2022-12-03T12:50:25.231Z,27.20
2022-12-03T12:51:26.917Z,27.73
2022-12-03T12:52:28.851Z,22.98
2022-12-03T12:53:35.797Z,19.30
2022-12-03T12:54:38.003Z,18.42
2022-12-03T12:55:43.474Z,21.30
2022-12-03T12:56:50.364Z,22.13
2022-12-03T12:57:52.103Z,20.27
2022-12-03T12:58:54.417Z,19.38
2022-12-03T12:59:56.414Z,18.13
2022-12-03T13:01:01.287Z,17.98
2022-12-03T13:02:08.590Z,17.13
2022-12-03T13:03:14.249Z,17.65
2022-12-03T13:04:20.328Z,17.08
2022-12-03T13:05:22.060Z,22.10
2022-12-03T13:06:28.796Z,18.05
2022-12-03T13:07:31.970Z,18.23
2022-12-03T13:08:47.213Z,14.65
2022-12-03T13:09:54.807Z,15.18
2022-12-03T13:10:58.959Z,16.60
2022-12-03T13:12:04.166Z,16.48
2022-12-03T13:13:17.724Z,14.60
2022-12-03T13:14:22.562Z,13.88
2022-12-03T13:15:48.991Z,15.45
2022-12-03T13:16:52.574Z,14.65
2022-12-03T13:17:54.309Z,17.10
2022-12-03T13:18:58.548Z,17.83
2022-12-03T13:20:07.470Z,19.15
2022-12-03T13:21:29.940Z,14.85
2022-12-03T13:22:31.611Z,17.02
2022-12-03T13:23:35.323Z,16.50
2022-12-03T13:24:43.015Z,15.82
2022-12-03T13:26:00.594Z,14.02
2022-12-03T13:27:23.191Z,12.95
2022-12-03T13:28:25.345Z,15.95
2022-12-03T13:29:27.896Z,12.00
2022-12-03T13:30:30.405Z,15.73
2022-12-03T13:31:39.471Z,14.00
2022-12-03T13:32:45.078Z,15.05
2022-12-03T13:33:46.810Z,13.88
2022-12-03T13:34:50.825Z,15.48
2022-12-03T13:35:54.511Z,15.50
2022-12-03T13:36:58.294Z,16.13
2022-12-03T13:38:00.408Z,16.70
2022-12-03T13:39:08.720Z,16.33
2022-12-03T13:40:31.448Z,16.30
2022-12-03T13:41:52.053Z,14.88
2022-12-03T13:42:55.019Z,15.43
2022-12-03T13:43:57.043Z,19.05
2022-12-03T13:44:59.652Z,12.50
2022-12-03T13:46:01.466Z,13.02
2022-12-03T13:47:13.577Z,14.18